THY8UG LTFM-EDDS
Flight info
| Callsign | THY8UG |
|---|---|
| Flight time | 2h 21m |
| Altitude | 30000 |
| Route | VADEN1E/36 VADEN N618 BAKLO DCT XANEX DCT UTEKA DCT LAKIK DCT RASIN DCT OBUTI DCT MORED DCT TITIG L173 MAH/N0414F240 L173 DODIL T127 TEKSI TEKSI1W |
| Aircraft | A21N/M-SDE2E3FGHIJ1RWXY/LB1 |
Departure
| Time | 2026-05-05 16:50 |
|---|---|
| Airport | İstanbul Airport (LTFM) |
Arrival
| Time | 2026-05-05 19:11 |
|---|---|
| Airport | Stuttgart Airport (EDDS) |
| Time | Latitude | Longitude | Altitude | Speed | Heading |
|---|---|---|---|---|---|
| 2026-05-05 15:49 | 41.26715 | 28.74740 | 338 ft | 0 kts | 89° |
| 2026-05-05 16:32 | 41.26714 | 28.74737 | 339 ft | 2 kts | 89° |
| 2026-05-05 16:32 | 41.26714 | 28.74703 | 338 ft | 4 kts | 89° |
| 2026-05-05 16:32 | 41.26713 | 28.74667 | 334 ft | 4 kts | 89° |
| 2026-05-05 16:32 | 41.26712 | 28.74636 | 336 ft | 4 kts | 69° |
| 2026-05-05 16:33 | 41.26697 | 28.74617 | 334 ft | 4 kts | 11° |
| 2026-05-05 16:33 | 41.26678 | 28.74614 | 337 ft | 1 kts | 359° |
| 2026-05-05 16:33 | 41.26674 | 28.74615 | 337 ft | 0 kts | 359° |
| 2026-05-05 16:39 | 41.26677 | 28.74614 | 339 ft | 2 kts | 359° |
| 2026-05-05 16:39 | 41.26706 | 28.74614 | 338 ft | 6 kts | 359° |
| 2026-05-05 16:39 | 41.26754 | 28.74612 | 339 ft | 8 kts | 359° |
| 2026-05-05 16:39 | 41.26818 | 28.74611 | 336 ft | 10 kts | 359° |
| 2026-05-05 16:40 | 41.26895 | 28.74610 | 335 ft | 12 kts | 360° |
| 2026-05-05 16:40 | 41.26981 | 28.74608 | 335 ft | 13 kts | 358° |
| 2026-05-05 16:40 | 41.27063 | 28.74639 | 338 ft | 14 kts | 66° |
| 2026-05-05 16:40 | 41.27067 | 28.74771 | 339 ft | 15 kts | 90° |
| 2026-05-05 16:41 | 41.27066 | 28.74914 | 339 ft | 16 kts | 90° |
| 2026-05-05 16:41 | 41.27066 | 28.75063 | 339 ft | 17 kts | 88° |
| 2026-05-05 16:41 | 41.27069 | 28.75219 | 339 ft | 15 kts | 89° |
| 2026-05-05 16:41 | 41.27070 | 28.75343 | 339 ft | 3 kts | 97° |
| 2026-05-05 16:42 | 41.27054 | 28.75366 | 338 ft | 5 kts | 152° |
| 2026-05-05 16:42 | 41.27013 | 28.75374 | 336 ft | 8 kts | 178° |
| 2026-05-05 16:42 | 41.26950 | 28.75376 | 338 ft | 11 kts | 180° |
| 2026-05-05 16:42 | 41.26858 | 28.75377 | 339 ft | 15 kts | 179° |
| 2026-05-05 16:43 | 41.26739 | 28.75380 | 337 ft | 19 kts | 179° |
| 2026-05-05 16:43 | 41.26607 | 28.75383 | 339 ft | 19 kts | 179° |
| 2026-05-05 16:43 | 41.26494 | 28.75385 | 338 ft | 7 kts | 179° |
| 2026-05-05 16:43 | 41.26443 | 28.75393 | 337 ft | 8 kts | 155° |
| 2026-05-05 16:44 | 41.26424 | 28.75466 | 336 ft | 9 kts | 90° |
| 2026-05-05 16:44 | 41.26424 | 28.75519 | 336 ft | 0 kts | 89° |
| 2026-05-05 16:47 | 41.26424 | 28.75539 | 338 ft | 4 kts | 89° |
| 2026-05-05 16:47 | 41.26425 | 28.75597 | 338 ft | 8 kts | 89° |
| 2026-05-05 16:47 | 41.26447 | 28.75661 | 337 ft | 9 kts | 3° |
| 2026-05-05 16:47 | 41.26462 | 28.75661 | 338 ft | 0 kts | 0° |
| 2026-05-05 16:49 | 41.26469 | 28.75661 | 339 ft | 8 kts | 0° |
| 2026-05-05 16:49 | 41.26745 | 28.75659 | 338 ft | 75 kts | 359° |
| 2026-05-05 16:49 | 41.27501 | 28.75644 | 336 ft | 141 kts | 360° |
| 2026-05-05 16:50 | 41.28621 | 28.75615 | 636 ft | 167 kts | 360° |
| 2026-05-05 16:50 | 41.29783 | 28.75637 | 1377 ft | 169 kts | 12° |
| 2026-05-05 16:50 | 41.30809 | 28.76487 | 1732 ft | 191 kts | 51° |
| 2026-05-05 16:50 | 41.31685 | 28.77901 | 2133 ft | 204 kts | 41° |
| 2026-05-05 16:51 | 41.32933 | 28.78973 | 2415 ft | 229 kts | 24° |
| 2026-05-05 16:51 | 41.34518 | 28.79662 | 2761 ft | 247 kts | 5° |
| 2026-05-05 16:51 | 41.36207 | 28.79312 | 3466 ft | 252 kts | 332° |
| 2026-05-05 16:51 | 41.37441 | 28.77719 | 4188 ft | 258 kts | 299° |
| 2026-05-05 16:52 | 41.38102 | 28.75504 | 5113 ft | 257 kts | 295° |
| 2026-05-05 16:52 | 41.38860 | 28.73344 | 5892 ft | 259 kts | 302° |
| 2026-05-05 16:52 | 41.39734 | 28.71242 | 6692 ft | 260 kts | 304° |
| 2026-05-05 16:52 | 41.40647 | 28.69147 | 7445 ft | 262 kts | 304° |
| 2026-05-05 16:53 | 41.41581 | 28.67051 | 8191 ft | 264 kts | 305° |
| 2026-05-05 16:53 | 41.42531 | 28.64944 | 8922 ft | 267 kts | 306° |
| 2026-05-05 16:53 | 41.43494 | 28.62816 | 9643 ft | 269 kts | 306° |
| 2026-05-05 16:53 | 41.44472 | 28.60661 | 10224 ft | 277 kts | 306° |
| 2026-05-05 16:54 | 41.45505 | 28.58395 | 10501 ft | 295 kts | 306° |
| 2026-05-05 16:54 | 41.46604 | 28.55985 | 10737 ft | 313 kts | 306° |
| 2026-05-05 16:54 | 41.47767 | 28.53436 | 10977 ft | 331 kts | 305° |
| 2026-05-05 16:54 | 41.48974 | 28.50787 | 11178 ft | 348 kts | 305° |
| 2026-05-05 16:55 | 41.50257 | 28.47964 | 11391 ft | 364 kts | 305° |
| 2026-05-05 16:55 | 41.51599 | 28.45010 | 11602 ft | 378 kts | 304° |
| 2026-05-05 16:55 | 41.52978 | 28.41976 | 11961 ft | 386 kts | 304° |
| 2026-05-05 16:55 | 41.54371 | 28.38900 | 12413 ft | 389 kts | 304° |
| 2026-05-05 16:56 | 41.55779 | 28.35791 | 12897 ft | 392 kts | 304° |
| 2026-05-05 16:56 | 41.57187 | 28.32665 | 13395 ft | 395 kts | 304° |
| 2026-05-05 16:56 | 41.58616 | 28.29514 | 13885 ft | 398 kts | 304° |
| 2026-05-05 16:56 | 41.60055 | 28.26336 | 14283 ft | 401 kts | 304° |
| 2026-05-05 16:57 | 41.61481 | 28.23181 | 14682 ft | 403 kts | 304° |
| 2026-05-05 16:57 | 41.62932 | 28.19962 | 15177 ft | 406 kts | 304° |
| 2026-05-05 16:57 | 41.64399 | 28.16712 | 15706 ft | 409 kts | 304° |
| 2026-05-05 16:57 | 41.65868 | 28.13445 | 16231 ft | 411 kts | 304° |
| 2026-05-05 16:58 | 41.67349 | 28.10157 | 16733 ft | 414 kts | 304° |
| 2026-05-05 16:58 | 41.68839 | 28.06840 | 17228 ft | 417 kts | 304° |
| 2026-05-05 16:58 | 41.70330 | 28.03497 | 17712 ft | 420 kts | 304° |
| 2026-05-05 16:58 | 41.71823 | 28.00120 | 18208 ft | 423 kts | 304° |
| 2026-05-05 16:59 | 41.73314 | 27.96770 | 18628 ft | 425 kts | 304° |
| 2026-05-05 16:59 | 41.74836 | 27.93355 | 19016 ft | 428 kts | 304° |
| 2026-05-05 16:59 | 41.76367 | 27.89933 | 19394 ft | 431 kts | 304° |
| 2026-05-05 16:59 | 41.77913 | 27.86477 | 19779 ft | 434 kts | 304° |
| 2026-05-05 17:00 | 41.79460 | 27.82998 | 20151 ft | 436 kts | 303° |
| 2026-05-05 17:00 | 41.81016 | 27.79487 | 20520 ft | 439 kts | 303° |
| 2026-05-05 17:00 | 41.82579 | 27.75965 | 20894 ft | 441 kts | 303° |
| 2026-05-05 17:00 | 41.84155 | 27.72420 | 21313 ft | 444 kts | 304° |
| 2026-05-05 17:01 | 41.85738 | 27.68855 | 21802 ft | 446 kts | 304° |
| 2026-05-05 17:01 | 41.87325 | 27.65275 | 22205 ft | 448 kts | 303° |
| 2026-05-05 17:01 | 41.88919 | 27.61669 | 22564 ft | 451 kts | 303° |
| 2026-05-05 17:01 | 41.90521 | 27.58037 | 22946 ft | 453 kts | 303° |
| 2026-05-05 17:02 | 41.92109 | 27.54435 | 23286 ft | 456 kts | 303° |
| 2026-05-05 17:02 | 41.93728 | 27.50770 | 23627 ft | 458 kts | 303° |
| 2026-05-05 17:02 | 41.95355 | 27.47074 | 23908 ft | 461 kts | 303° |
| 2026-05-05 17:02 | 41.96995 | 27.43366 | 24063 ft | 462 kts | 303° |
| 2026-05-05 17:03 | 41.98627 | 27.39644 | 24089 ft | 463 kts | 302° |
| 2026-05-05 17:03 | 42.00210 | 27.35865 | 24186 ft | 465 kts | 302° |
| 2026-05-05 17:03 | 42.01795 | 27.32056 | 24461 ft | 467 kts | 302° |
| 2026-05-05 17:03 | 42.03381 | 27.28250 | 24800 ft | 467 kts | 302° |
| 2026-05-05 17:04 | 42.04967 | 27.24442 | 25188 ft | 466 kts | 302° |
| 2026-05-05 17:04 | 42.06531 | 27.20692 | 25519 ft | 465 kts | 302° |
| 2026-05-05 17:04 | 42.08110 | 27.16899 | 25922 ft | 464 kts | 302° |
| 2026-05-05 17:04 | 42.09685 | 27.13115 | 26334 ft | 462 kts | 302° |
| 2026-05-05 17:05 | 42.11253 | 27.09341 | 26730 ft | 461 kts | 302° |
| 2026-05-05 17:05 | 42.12811 | 27.05574 | 27097 ft | 461 kts | 302° |
| 2026-05-05 17:05 | 42.14375 | 27.01809 | 27469 ft | 460 kts | 302° |
| 2026-05-05 17:05 | 42.15929 | 26.98056 | 27830 ft | 459 kts | 302° |
| 2026-05-05 17:06 | 42.17485 | 26.94292 | 28198 ft | 458 kts | 302° |
| 2026-05-05 17:06 | 42.19008 | 26.90600 | 28582 ft | 456 kts | 302° |
| 2026-05-05 17:06 | 42.20570 | 26.86817 | 29004 ft | 454 kts | 302° |
| 2026-05-05 17:06 | 42.22075 | 26.83148 | 29362 ft | 452 kts | 302° |
| 2026-05-05 17:07 | 42.23597 | 26.79436 | 29708 ft | 452 kts | 302° |
| 2026-05-05 17:07 | 42.25113 | 26.75732 | 30029 ft | 451 kts | 302° |
| 2026-05-05 17:07 | 42.26634 | 26.72033 | 30303 ft | 450 kts | 302° |
| 2026-05-05 17:07 | 42.28147 | 26.68349 | 30556 ft | 450 kts | 302° |
| 2026-05-05 17:08 | 42.29663 | 26.64648 | 30789 ft | 449 kts | 302° |
| 2026-05-05 17:08 | 42.31168 | 26.60965 | 31093 ft | 447 kts | 302° |
| 2026-05-05 17:08 | 42.32669 | 26.57293 | 31369 ft | 446 kts | 302° |
| 2026-05-05 17:08 | 42.34160 | 26.53631 | 31609 ft | 445 kts | 302° |
| 2026-05-05 17:09 | 42.35633 | 26.50010 | 31831 ft | 445 kts | 302° |
| 2026-05-05 17:09 | 42.37122 | 26.46349 | 32016 ft | 445 kts | 302° |
| 2026-05-05 17:09 | 42.40095 | 26.39022 | 32053 ft | 444 kts | 302° |
| 2026-05-05 17:10 | 42.43044 | 26.31712 | 32023 ft | 441 kts | 302° |
| 2026-05-05 17:10 | 42.45982 | 26.24422 | 32016 ft | 441 kts | 302° |
| 2026-05-05 17:11 | 42.48905 | 26.17175 | 32015 ft | 442 kts | 302° |
| 2026-05-05 17:11 | 42.51851 | 26.09853 | 31989 ft | 443 kts | 302° |
| 2026-05-05 17:12 | 42.54794 | 26.02504 | 32005 ft | 443 kts | 302° |
| 2026-05-05 17:12 | 42.57733 | 25.95145 | 32016 ft | 444 kts | 302° |
| 2026-05-05 17:13 | 42.60177 | 25.89024 | 32013 ft | 443 kts | 302° |
| 2026-05-05 17:13 | 42.63571 | 25.80468 | 32002 ft | 442 kts | 301° |
| 2026-05-05 17:14 | 42.66486 | 25.73126 | 32003 ft | 441 kts | 301° |
| 2026-05-05 17:14 | 42.68895 | 25.67027 | 32011 ft | 441 kts | 301° |
| 2026-05-05 17:15 | 42.71791 | 25.59681 | 32012 ft | 441 kts | 301° |
| 2026-05-05 17:15 | 42.74684 | 25.52332 | 31997 ft | 439 kts | 301° |
| 2026-05-05 17:16 | 42.77550 | 25.45044 | 32008 ft | 437 kts | 301° |
| 2026-05-05 17:16 | 42.80394 | 25.37780 | 32005 ft | 437 kts | 301° |
| 2026-05-05 17:17 | 42.83247 | 25.30476 | 32010 ft | 438 kts | 301° |
| 2026-05-05 17:17 | 42.86104 | 25.23140 | 32008 ft | 438 kts | 301° |
| 2026-05-05 17:18 | 42.88959 | 25.15807 | 32011 ft | 438 kts | 301° |
| 2026-05-05 17:18 | 42.91803 | 25.08470 | 32014 ft | 438 kts | 301° |
| 2026-05-05 17:19 | 42.94629 | 25.01169 | 32015 ft | 438 kts | 301° |
| 2026-05-05 17:19 | 42.97465 | 24.93817 | 32008 ft | 438 kts | 301° |
| 2026-05-05 17:20 | 43.00299 | 24.86451 | 32014 ft | 438 kts | 301° |
| 2026-05-05 17:20 | 43.03126 | 24.79068 | 32016 ft | 438 kts | 301° |
| 2026-05-05 17:21 | 43.05949 | 24.71679 | 32014 ft | 438 kts | 301° |
| 2026-05-05 17:22 | 43.10152 | 24.60668 | 32006 ft | 437 kts | 301° |
| 2026-05-05 17:22 | 43.12938 | 24.53279 | 32012 ft | 437 kts | 300° |
| 2026-05-05 17:23 | 43.15715 | 24.45937 | 32013 ft | 436 kts | 301° |
| 2026-05-05 17:23 | 43.18511 | 24.38559 | 31981 ft | 437 kts | 300° |
| 2026-05-05 17:24 | 43.21302 | 24.31184 | 32000 ft | 436 kts | 300° |
| 2026-05-05 17:24 | 43.24090 | 24.23821 | 32002 ft | 435 kts | 300° |
| 2026-05-05 17:25 | 43.26871 | 24.16434 | 31998 ft | 435 kts | 300° |
| 2026-05-05 17:25 | 43.29638 | 24.09041 | 31979 ft | 436 kts | 300° |
| 2026-05-05 17:26 | 43.32385 | 24.01683 | 31995 ft | 436 kts | 300° |
| 2026-05-05 17:26 | 43.35147 | 23.94270 | 31996 ft | 436 kts | 300° |
| 2026-05-05 17:27 | 43.37894 | 23.86842 | 31992 ft | 436 kts | 300° |
| 2026-05-05 17:27 | 43.40641 | 23.79400 | 31970 ft | 436 kts | 299° |
| 2026-05-05 17:28 | 43.43375 | 23.72008 | 31988 ft | 437 kts | 299° |
| 2026-05-05 17:28 | 43.46128 | 23.64549 | 31998 ft | 437 kts | 300° |
| 2026-05-05 17:29 | 43.48875 | 23.57078 | 31989 ft | 437 kts | 299° |
| 2026-05-05 17:29 | 43.51613 | 23.49596 | 31976 ft | 437 kts | 299° |
| 2026-05-05 17:30 | 43.54338 | 23.42089 | 31985 ft | 438 kts | 299° |
| 2026-05-05 17:30 | 43.57057 | 23.34629 | 31984 ft | 439 kts | 299° |
| 2026-05-05 17:31 | 43.59790 | 23.27106 | 31989 ft | 439 kts | 299° |
| 2026-05-05 17:31 | 43.62519 | 23.19562 | 31970 ft | 439 kts | 298° |
| 2026-05-05 17:32 | 43.65254 | 23.12008 | 31986 ft | 440 kts | 298° |
| 2026-05-05 17:32 | 43.67987 | 23.04456 | 31982 ft | 440 kts | 298° |
| 2026-05-05 17:33 | 43.70703 | 22.96932 | 31981 ft | 441 kts | 298° |
| 2026-05-05 17:33 | 43.73420 | 22.89353 | 31977 ft | 440 kts | 298° |
| 2026-05-05 17:34 | 43.76138 | 22.81768 | 31972 ft | 440 kts | 298° |
| 2026-05-05 17:34 | 43.78847 | 22.74172 | 31977 ft | 440 kts | 298° |
| 2026-05-05 17:35 | 43.81551 | 22.66571 | 31975 ft | 440 kts | 298° |
| 2026-05-05 17:35 | 43.84231 | 22.59017 | 31975 ft | 440 kts | 297° |
| 2026-05-05 17:36 | 43.86919 | 22.51414 | 31969 ft | 439 kts | 297° |
| 2026-05-05 17:36 | 43.89594 | 22.43821 | 31973 ft | 439 kts | 297° |
| 2026-05-05 17:37 | 43.92434 | 22.36337 | 31973 ft | 438 kts | 301° |
| 2026-05-05 17:37 | 43.95524 | 22.29041 | 31973 ft | 440 kts | 302° |
| 2026-05-05 17:38 | 43.98607 | 22.21758 | 31979 ft | 440 kts | 301° |
| 2026-05-05 17:38 | 44.01702 | 22.14410 | 31977 ft | 440 kts | 301° |
| 2026-05-05 17:39 | 44.04786 | 22.07065 | 31976 ft | 440 kts | 301° |
| 2026-05-05 17:39 | 44.07871 | 21.99703 | 31976 ft | 440 kts | 301° |
| 2026-05-05 17:40 | 44.10915 | 21.92416 | 31976 ft | 438 kts | 301° |
| 2026-05-05 17:40 | 44.13975 | 21.85071 | 31979 ft | 439 kts | 301° |
| 2026-05-05 17:41 | 44.17028 | 21.77721 | 31976 ft | 438 kts | 301° |
| 2026-05-05 17:41 | 44.20080 | 21.70360 | 31974 ft | 439 kts | 301° |
| 2026-05-05 17:42 | 44.23120 | 21.63023 | 31964 ft | 436 kts | 300° |
| 2026-05-05 17:42 | 44.26120 | 21.55753 | 31966 ft | 436 kts | 300° |
| 2026-05-05 17:43 | 44.29132 | 21.48421 | 31956 ft | 436 kts | 300° |
| 2026-05-05 17:43 | 44.32144 | 21.41072 | 31964 ft | 436 kts | 300° |
| 2026-05-05 17:44 | 44.35145 | 21.33750 | 31944 ft | 436 kts | 300° |
| 2026-05-05 17:44 | 44.38155 | 21.26389 | 31938 ft | 436 kts | 300° |
| 2026-05-05 17:45 | 44.41159 | 21.19013 | 31942 ft | 437 kts | 300° |
| 2026-05-05 17:45 | 44.44156 | 21.11625 | 31936 ft | 436 kts | 300° |
| 2026-05-05 17:46 | 44.47147 | 21.04245 | 31931 ft | 435 kts | 300° |
| 2026-05-05 17:46 | 44.50122 | 20.96878 | 31941 ft | 435 kts | 300° |
| 2026-05-05 17:47 | 44.53079 | 20.89546 | 31932 ft | 435 kts | 300° |
| 2026-05-05 17:47 | 44.56053 | 20.82165 | 31931 ft | 435 kts | 300° |
| 2026-05-05 17:48 | 44.59016 | 20.74773 | 31930 ft | 434 kts | 299° |
| 2026-05-05 17:48 | 44.61967 | 20.67388 | 31927 ft | 434 kts | 299° |
| 2026-05-05 17:49 | 44.64897 | 20.60046 | 31928 ft | 434 kts | 299° |
| 2026-05-05 17:49 | 44.67840 | 20.52647 | 31929 ft | 434 kts | 299° |
| 2026-05-05 17:50 | 44.70784 | 20.45233 | 31935 ft | 435 kts | 298° |
| 2026-05-05 17:50 | 44.73736 | 20.37771 | 32235 ft | 437 kts | 298° |
| 2026-05-05 17:50 | 44.75208 | 20.34035 | 32469 ft | 436 kts | 298° |
| 2026-05-05 17:51 | 44.76654 | 20.30354 | 32732 ft | 434 kts | 298° |
| 2026-05-05 17:51 | 44.78111 | 20.26646 | 32998 ft | 433 kts | 298° |
| 2026-05-05 17:51 | 44.79566 | 20.22946 | 33265 ft | 431 kts | 298° |
| 2026-05-05 17:51 | 44.81012 | 20.19263 | 33535 ft | 429 kts | 298° |
| 2026-05-05 17:52 | 44.82447 | 20.15598 | 33804 ft | 426 kts | 298° |
| 2026-05-05 17:52 | 44.83878 | 20.11940 | 33954 ft | 427 kts | 297° |
| 2026-05-05 17:52 | 44.85318 | 20.08259 | 33968 ft | 429 kts | 297° |
| 2026-05-05 17:53 | 44.88195 | 20.00895 | 33941 ft | 429 kts | 297° |
| 2026-05-05 17:53 | 44.91045 | 19.93576 | 33932 ft | 429 kts | 297° |
| 2026-05-05 17:54 | 44.93913 | 19.86190 | 33934 ft | 429 kts | 297° |
| 2026-05-05 17:54 | 44.96779 | 19.78800 | 33934 ft | 430 kts | 297° |
| 2026-05-05 17:55 | 44.99646 | 19.71381 | 33927 ft | 430 kts | 297° |
| 2026-05-05 17:55 | 45.02503 | 19.63964 | 33929 ft | 430 kts | 297° |
| 2026-05-05 17:56 | 45.05337 | 19.56586 | 33935 ft | 430 kts | 297° |
| 2026-05-05 17:56 | 45.08191 | 19.49140 | 33937 ft | 430 kts | 297° |
| 2026-05-05 17:57 | 45.11040 | 19.41695 | 33936 ft | 430 kts | 296° |
| 2026-05-05 17:57 | 45.13880 | 19.34244 | 33934 ft | 430 kts | 296° |
| 2026-05-05 17:58 | 45.16698 | 19.26830 | 33934 ft | 430 kts | 296° |
| 2026-05-05 17:58 | 45.19535 | 19.19364 | 33932 ft | 430 kts | 296° |
| 2026-05-05 17:59 | 45.22362 | 19.11899 | 33940 ft | 430 kts | 296° |
| 2026-05-05 17:59 | 45.25181 | 19.04418 | 33940 ft | 430 kts | 296° |
| 2026-05-05 18:00 | 45.27977 | 18.96980 | 33940 ft | 430 kts | 296° |
| 2026-05-05 18:00 | 45.30790 | 18.89494 | 33944 ft | 430 kts | 296° |
| 2026-05-05 18:01 | 45.33595 | 18.81993 | 33945 ft | 430 kts | 296° |
| 2026-05-05 18:01 | 45.36399 | 18.74480 | 33952 ft | 430 kts | 296° |
| 2026-05-05 18:02 | 45.39183 | 18.66998 | 33954 ft | 430 kts | 296° |
| 2026-05-05 18:02 | 45.41975 | 18.59472 | 33957 ft | 430 kts | 296° |
| 2026-05-05 18:03 | 45.44764 | 18.51930 | 33973 ft | 430 kts | 295° |
| 2026-05-05 18:03 | 45.47549 | 18.44369 | 33957 ft | 432 kts | 295° |
| 2026-05-05 18:04 | 45.50321 | 18.36840 | 33958 ft | 432 kts | 295° |
| 2026-05-05 18:04 | 45.53104 | 18.29261 | 33957 ft | 432 kts | 295° |
| 2026-05-05 18:05 | 45.55883 | 18.21665 | 33956 ft | 432 kts | 295° |
| 2026-05-05 18:05 | 45.58663 | 18.14025 | 33968 ft | 434 kts | 295° |
| 2026-05-05 18:06 | 45.61430 | 18.06364 | 33971 ft | 434 kts | 294° |
| 2026-05-05 18:06 | 45.64113 | 17.98700 | 33973 ft | 436 kts | 294° |
| 2026-05-05 18:07 | 45.66848 | 17.90881 | 33963 ft | 441 kts | 294° |
| 2026-05-05 18:07 | 45.69605 | 17.82999 | 33964 ft | 444 kts | 295° |
| 2026-05-05 18:08 | 45.72356 | 17.75108 | 33958 ft | 443 kts | 295° |
| 2026-05-05 18:08 | 45.75084 | 17.67250 | 33956 ft | 444 kts | 295° |
| 2026-05-05 18:09 | 45.77817 | 17.59327 | 33956 ft | 443 kts | 294° |
| 2026-05-05 18:09 | 45.80540 | 17.51415 | 33958 ft | 441 kts | 295° |
| 2026-05-05 18:10 | 45.83256 | 17.43531 | 33956 ft | 440 kts | 295° |
| 2026-05-05 18:10 | 45.85974 | 17.35630 | 33959 ft | 443 kts | 295° |
| 2026-05-05 18:11 | 45.88673 | 17.27737 | 33955 ft | 444 kts | 294° |
| 2026-05-05 18:11 | 45.91381 | 17.19776 | 33960 ft | 443 kts | 294° |
| 2026-05-05 18:12 | 45.94077 | 17.11833 | 33953 ft | 442 kts | 294° |
| 2026-05-05 18:12 | 45.96777 | 17.03886 | 33953 ft | 444 kts | 294° |
| 2026-05-05 18:13 | 45.99450 | 16.95989 | 33953 ft | 442 kts | 294° |
| 2026-05-05 18:13 | 46.02134 | 16.88022 | 33955 ft | 442 kts | 294° |
| 2026-05-05 18:14 | 46.04807 | 16.80064 | 33959 ft | 441 kts | 294° |
| 2026-05-05 18:14 | 46.07468 | 16.72115 | 33949 ft | 441 kts | 295° |
| 2026-05-05 18:15 | 46.10920 | 16.64809 | 33953 ft | 447 kts | 312° |
| 2026-05-05 18:15 | 46.15362 | 16.58649 | 33956 ft | 447 kts | 314° |
| 2026-05-05 18:16 | 46.19863 | 16.52447 | 33959 ft | 449 kts | 314° |
| 2026-05-05 18:16 | 46.24377 | 16.46163 | 33950 ft | 451 kts | 314° |
| 2026-05-05 18:17 | 46.28895 | 16.39861 | 33943 ft | 451 kts | 314° |
| 2026-05-05 18:17 | 46.33410 | 16.33550 | 33942 ft | 453 kts | 314° |
| 2026-05-05 18:18 | 46.37823 | 16.27170 | 33937 ft | 450 kts | 308° |
| 2026-05-05 18:18 | 46.41497 | 16.19867 | 33936 ft | 447 kts | 303° |
| 2026-05-05 18:19 | 46.45065 | 16.12477 | 33936 ft | 448 kts | 303° |
| 2026-05-05 18:19 | 46.48653 | 16.05051 | 33933 ft | 450 kts | 303° |
| 2026-05-05 18:20 | 46.52227 | 15.97654 | 33920 ft | 450 kts | 303° |
| 2026-05-05 18:20 | 46.55825 | 15.90217 | 33928 ft | 450 kts | 303° |
| 2026-05-05 18:21 | 46.59407 | 15.82750 | 33933 ft | 450 kts | 303° |
| 2026-05-05 18:21 | 46.62988 | 15.75275 | 33928 ft | 450 kts | 303° |
| 2026-05-05 18:22 | 46.66535 | 15.67846 | 33921 ft | 451 kts | 302° |
| 2026-05-05 18:22 | 46.70106 | 15.60353 | 33917 ft | 450 kts | 302° |
| 2026-05-05 18:23 | 46.73657 | 15.52873 | 33891 ft | 448 kts | 302° |
| 2026-05-05 18:23 | 46.77216 | 15.45358 | 33884 ft | 452 kts | 302° |
| 2026-05-05 18:24 | 46.80767 | 15.37844 | 33877 ft | 451 kts | 302° |
| 2026-05-05 18:24 | 46.84324 | 15.30306 | 33879 ft | 452 kts | 302° |
| 2026-05-05 18:25 | 46.87868 | 15.22770 | 33881 ft | 444 kts | 301° |
| 2026-05-05 18:25 | 46.91320 | 15.15402 | 33869 ft | 441 kts | 302° |
| 2026-05-05 18:26 | 46.94804 | 15.07947 | 33878 ft | 447 kts | 302° |
| 2026-05-05 18:26 | 46.98248 | 15.00559 | 33878 ft | 440 kts | 301° |
| 2026-05-05 18:27 | 47.01713 | 14.93107 | 33879 ft | 445 kts | 302° |
| 2026-05-05 18:27 | 47.05216 | 14.85530 | 33889 ft | 451 kts | 301° |
| 2026-05-05 18:28 | 47.10480 | 14.74148 | 33876 ft | 450 kts | 302° |
| 2026-05-05 18:28 | 47.13978 | 14.66552 | 33872 ft | 453 kts | 301° |
| 2026-05-05 18:29 | 47.17491 | 14.58909 | 33877 ft | 450 kts | 301° |
| 2026-05-05 18:29 | 47.21005 | 14.51237 | 33884 ft | 454 kts | 301° |
| 2026-05-05 18:30 | 47.24525 | 14.43516 | 33873 ft | 455 kts | 301° |
| 2026-05-05 18:30 | 47.28044 | 14.35784 | 33864 ft | 454 kts | 301° |
| 2026-05-05 18:31 | 47.31538 | 14.28103 | 33859 ft | 455 kts | 301° |
| 2026-05-05 18:31 | 47.35051 | 14.20352 | 33855 ft | 454 kts | 301° |
| 2026-05-05 18:32 | 47.38548 | 14.12601 | 33846 ft | 454 kts | 301° |
| 2026-05-05 18:32 | 47.42043 | 14.04840 | 33842 ft | 454 kts | 301° |
| 2026-05-05 18:33 | 47.45510 | 13.97111 | 33821 ft | 455 kts | 300° |
| 2026-05-05 18:33 | 47.49002 | 13.89321 | 33825 ft | 454 kts | 300° |
| 2026-05-05 18:34 | 47.52483 | 13.81528 | 33823 ft | 455 kts | 300° |
| 2026-05-05 18:34 | 47.55957 | 13.73713 | 33830 ft | 455 kts | 300° |
| 2026-05-05 18:35 | 47.59408 | 13.65945 | 33800 ft | 454 kts | 300° |
| 2026-05-05 18:35 | 47.62887 | 13.58098 | 33810 ft | 454 kts | 300° |
| 2026-05-05 18:36 | 47.66345 | 13.50242 | 33836 ft | 456 kts | 299° |
| 2026-05-05 18:36 | 47.69808 | 13.42352 | 33812 ft | 456 kts | 299° |
| 2026-05-05 18:37 | 47.73254 | 13.34507 | 33816 ft | 457 kts | 299° |
| 2026-05-05 18:37 | 47.76706 | 13.26602 | 33800 ft | 456 kts | 299° |
| 2026-05-05 18:38 | 47.80155 | 13.18675 | 33814 ft | 456 kts | 299° |
| 2026-05-05 18:38 | 47.83616 | 13.10763 | 33813 ft | 458 kts | 298° |
| 2026-05-05 18:39 | 47.87082 | 13.02800 | 33808 ft | 459 kts | 298° |
| 2026-05-05 18:39 | 47.90359 | 12.94762 | 33808 ft | 456 kts | 296° |
| 2026-05-05 18:40 | 47.93624 | 12.86633 | 33815 ft | 457 kts | 296° |
| 2026-05-05 18:40 | 47.96876 | 12.78496 | 33825 ft | 458 kts | 295° |
| 2026-05-05 18:41 | 48.00152 | 12.70288 | 33810 ft | 461 kts | 295° |
| 2026-05-05 18:41 | 48.02705 | 12.63888 | 33810 ft | 460 kts | 295° |
| 2026-05-05 18:42 | 48.05433 | 12.56904 | 33809 ft | 459 kts | 292° |
| 2026-05-05 18:42 | 48.06678 | 12.52598 | 33806 ft | 445 kts | 285° |
| 2026-05-05 18:42 | 48.07720 | 12.48274 | 33807 ft | 441 kts | 284° |
| 2026-05-05 18:43 | 48.09741 | 12.39614 | 33809 ft | 441 kts | 284° |
| 2026-05-05 18:43 | 48.10731 | 12.35367 | 33534 ft | 438 kts | 284° |
| 2026-05-05 18:43 | 48.11741 | 12.31051 | 33199 ft | 440 kts | 284° |
| 2026-05-05 18:44 | 48.12752 | 12.26724 | 32917 ft | 442 kts | 284° |
| 2026-05-05 18:44 | 48.13765 | 12.22372 | 32648 ft | 443 kts | 284° |
| 2026-05-05 18:44 | 48.14772 | 12.18021 | 32399 ft | 444 kts | 284° |
| 2026-05-05 18:44 | 48.15729 | 12.13619 | 32121 ft | 442 kts | 280° |
| 2026-05-05 18:45 | 48.16272 | 12.09128 | 31867 ft | 438 kts | 272° |
| 2026-05-05 18:45 | 48.16488 | 12.06123 | 31705 ft | 438 kts | 271° |
| 2026-05-05 18:45 | 48.16801 | 12.01133 | 31466 ft | 440 kts | 270° |
| 2026-05-05 18:45 | 48.17083 | 11.96554 | 31215 ft | 442 kts | 271° |
| 2026-05-05 18:46 | 48.17370 | 11.92004 | 30966 ft | 443 kts | 271° |
| 2026-05-05 18:46 | 48.17665 | 11.87403 | 30718 ft | 444 kts | 271° |
| 2026-05-05 18:46 | 48.17979 | 11.82781 | 30470 ft | 447 kts | 273° |
| 2026-05-05 18:46 | 48.18587 | 11.78240 | 30232 ft | 452 kts | 279° |
| 2026-05-05 18:47 | 48.19352 | 11.73618 | 29998 ft | 453 kts | 279° |
| 2026-05-05 18:47 | 48.20112 | 11.69085 | 29728 ft | 454 kts | 279° |
| 2026-05-05 18:47 | 48.20881 | 11.64484 | 29439 ft | 455 kts | 279° |
| 2026-05-05 18:47 | 48.21639 | 11.59874 | 29197 ft | 456 kts | 279° |
| 2026-05-05 18:48 | 48.22395 | 11.55241 | 28925 ft | 458 kts | 279° |
| 2026-05-05 18:48 | 48.23154 | 11.50614 | 28668 ft | 458 kts | 279° |
| 2026-05-05 18:48 | 48.23915 | 11.45963 | 28325 ft | 459 kts | 279° |
| 2026-05-05 18:48 | 48.24673 | 11.41314 | 27968 ft | 459 kts | 279° |
| 2026-05-05 18:49 | 48.25455 | 11.36658 | 27581 ft | 461 kts | 282° |
| 2026-05-05 18:49 | 48.26618 | 11.32137 | 27190 ft | 469 kts | 292° |
| 2026-05-05 18:49 | 48.28399 | 11.27998 | 26800 ft | 477 kts | 305° |
| 2026-05-05 18:49 | 48.30657 | 11.24333 | 26432 ft | 480 kts | 310° |
| 2026-05-05 18:50 | 48.32980 | 11.20800 | 26095 ft | 481 kts | 311° |
| 2026-05-05 18:50 | 48.35327 | 11.17223 | 25698 ft | 482 kts | 311° |
| 2026-05-05 18:50 | 48.37671 | 11.13626 | 25295 ft | 482 kts | 311° |
| 2026-05-05 18:50 | 48.40007 | 11.10014 | 24904 ft | 482 kts | 311° |
| 2026-05-05 18:51 | 48.42348 | 11.06381 | 24497 ft | 483 kts | 311° |
| 2026-05-05 18:51 | 48.44679 | 11.02755 | 24097 ft | 483 kts | 311° |
| 2026-05-05 18:51 | 48.47013 | 10.99111 | 23712 ft | 482 kts | 311° |
| 2026-05-05 18:51 | 48.49322 | 10.95481 | 23269 ft | 478 kts | 311° |
| 2026-05-05 18:52 | 48.51599 | 10.91857 | 22734 ft | 474 kts | 310° |
| 2026-05-05 18:52 | 48.53844 | 10.88246 | 22207 ft | 470 kts | 310° |
| 2026-05-05 18:52 | 48.56068 | 10.84667 | 21269 ft | 467 kts | 311° |
| 2026-05-05 18:52 | 48.58264 | 10.81142 | 20480 ft | 466 kts | 311° |
| 2026-05-05 18:53 | 48.60468 | 10.77616 | 20077 ft | 457 kts | 311° |
| 2026-05-05 18:53 | 48.62604 | 10.74237 | 19905 ft | 454 kts | 311° |
| 2026-05-05 18:53 | 48.64792 | 10.70796 | 19848 ft | 454 kts | 311° |
| 2026-05-05 18:53 | 48.66971 | 10.67362 | 19832 ft | 453 kts | 311° |
| 2026-05-05 18:54 | 48.69150 | 10.63891 | 19846 ft | 453 kts | 310° |
| 2026-05-05 18:54 | 48.71061 | 10.60170 | 19484 ft | 443 kts | 299° |
| 2026-05-05 18:54 | 48.72309 | 10.55957 | 18573 ft | 436 kts | 287° |
| 2026-05-05 18:54 | 48.72972 | 10.51512 | 17608 ft | 430 kts | 275° |
| 2026-05-05 18:55 | 48.73163 | 10.47017 | 16687 ft | 427 kts | 271° |
| 2026-05-05 18:55 | 48.73268 | 10.42569 | 15966 ft | 418 kts | 270° |
| 2026-05-05 18:55 | 48.73639 | 10.38242 | 15216 ft | 411 kts | 282° |
| 2026-05-05 18:55 | 48.74567 | 10.34276 | 14496 ft | 397 kts | 291° |
| 2026-05-05 18:56 | 48.75698 | 10.30553 | 13782 ft | 381 kts | 293° |
| 2026-05-05 18:56 | 48.76847 | 10.27014 | 13016 ft | 367 kts | 294° |
| 2026-05-05 18:56 | 48.77977 | 10.23616 | 12308 ft | 354 kts | 294° |
| 2026-05-05 18:56 | 48.79073 | 10.20371 | 11835 ft | 336 kts | 294° |
| 2026-05-05 18:57 | 48.80117 | 10.17320 | 11518 ft | 317 kts | 294° |
| 2026-05-05 18:57 | 48.81121 | 10.14420 | 11280 ft | 305 kts | 294° |
| 2026-05-05 18:57 | 48.82099 | 10.11625 | 11029 ft | 294 kts | 294° |
| 2026-05-05 18:57 | 48.83046 | 10.08946 | 10843 ft | 282 kts | 293° |
| 2026-05-05 18:58 | 48.83971 | 10.06415 | 10803 ft | 265 kts | 294° |
| 2026-05-05 18:58 | 48.84854 | 10.04066 | 10791 ft | 247 kts | 294° |
| 2026-05-05 18:58 | 48.85708 | 10.01822 | 10800 ft | 245 kts | 294° |
| 2026-05-05 18:58 | 48.86561 | 9.99581 | 10817 ft | 245 kts | 294° |
| 2026-05-05 18:59 | 48.87405 | 9.97370 | 10835 ft | 245 kts | 294° |
| 2026-05-05 18:59 | 48.88245 | 9.95110 | 10839 ft | 246 kts | 294° |
| 2026-05-05 18:59 | 48.89077 | 9.92845 | 10840 ft | 246 kts | 294° |
| 2026-05-05 18:59 | 48.89911 | 9.90571 | 10838 ft | 246 kts | 294° |
| 2026-05-05 19:00 | 48.90578 | 9.88227 | 10828 ft | 238 kts | 275° |
| 2026-05-05 19:00 | 48.90512 | 9.85763 | 10790 ft | 233 kts | 251° |
| 2026-05-05 19:00 | 48.89724 | 9.83661 | 10605 ft | 231 kts | 229° |
| 2026-05-05 19:00 | 48.88617 | 9.81981 | 10384 ft | 230 kts | 224° |
| 2026-05-05 19:01 | 48.87454 | 9.80354 | 10135 ft | 226 kts | 224° |
| 2026-05-05 19:01 | 48.86296 | 9.78755 | 9799 ft | 223 kts | 224° |
| 2026-05-05 19:01 | 48.85146 | 9.77177 | 9317 ft | 223 kts | 224° |
| 2026-05-05 19:01 | 48.83994 | 9.75601 | 8822 ft | 224 kts | 224° |
| 2026-05-05 19:02 | 48.82832 | 9.74018 | 8296 ft | 223 kts | 223° |
| 2026-05-05 19:02 | 48.81689 | 9.72460 | 7803 ft | 218 kts | 224° |
| 2026-05-05 19:02 | 48.80586 | 9.70962 | 7397 ft | 208 kts | 224° |
| 2026-05-05 19:02 | 48.79557 | 9.69579 | 7132 ft | 191 kts | 224° |
| 2026-05-05 19:03 | 48.78574 | 9.68258 | 6815 ft | 183 kts | 224° |
| 2026-05-05 19:03 | 48.77726 | 9.66922 | 6452 ft | 175 kts | 239° |
| 2026-05-05 19:03 | 48.77250 | 9.65262 | 6106 ft | 168 kts | 250° |
| 2026-05-05 19:03 | 48.76897 | 9.63600 | 5996 ft | 166 kts | 250° |
| 2026-05-05 19:04 | 48.76530 | 9.61961 | 5997 ft | 164 kts | 252° |
| 2026-05-05 19:04 | 48.76211 | 9.60327 | 5987 ft | 156 kts | 252° |
| 2026-05-05 19:04 | 48.75914 | 9.58776 | 6020 ft | 152 kts | 252° |
| 2026-05-05 19:04 | 48.75628 | 9.57265 | 5842 ft | 147 kts | 252° |
| 2026-05-05 19:05 | 48.75359 | 9.55840 | 5547 ft | 130 kts | 252° |
| 2026-05-05 19:05 | 48.75103 | 9.54488 | 5235 ft | 136 kts | 253° |
| 2026-05-05 19:05 | 48.74842 | 9.53108 | 5061 ft | 136 kts | 253° |
| 2026-05-05 19:05 | 48.74582 | 9.51736 | 4884 ft | 136 kts | 253° |
| 2026-05-05 19:06 | 48.74325 | 9.50377 | 4708 ft | 136 kts | 253° |
| 2026-05-05 19:06 | 48.74066 | 9.49003 | 4520 ft | 136 kts | 253° |
| 2026-05-05 19:06 | 48.73805 | 9.47626 | 4336 ft | 136 kts | 253° |
| 2026-05-05 19:06 | 48.73545 | 9.46252 | 4151 ft | 136 kts | 253° |
| 2026-05-05 19:07 | 48.73283 | 9.44869 | 3962 ft | 136 kts | 253° |
| 2026-05-05 19:07 | 48.73110 | 9.43953 | 3846 ft | 136 kts | 253° |
| 2026-05-05 19:07 | 48.72761 | 9.42105 | 3584 ft | 137 kts | 253° |
| 2026-05-05 19:07 | 48.72500 | 9.40721 | 3409 ft | 136 kts | 253° |
| 2026-05-05 19:08 | 48.72325 | 9.39802 | 3286 ft | 138 kts | 253° |
| 2026-05-05 19:08 | 48.71971 | 9.37931 | 3049 ft | 141 kts | 253° |
| 2026-05-05 19:08 | 48.71793 | 9.36988 | 2916 ft | 141 kts | 253° |
| 2026-05-05 19:08 | 48.71437 | 9.35110 | 2655 ft | 137 kts | 253° |
| 2026-05-05 19:09 | 48.71181 | 9.33754 | 2451 ft | 133 kts | 252° |
| 2026-05-05 19:09 | 48.70918 | 9.32410 | 2327 ft | 134 kts | 253° |
| 2026-05-05 19:09 | 48.70660 | 9.31037 | 2152 ft | 137 kts | 253° |
| 2026-05-05 19:09 | 48.70391 | 9.29636 | 1935 ft | 140 kts | 253° |
| 2026-05-05 19:10 | 48.70211 | 9.28673 | 1821 ft | 141 kts | 254° |
| 2026-05-05 19:10 | 48.69948 | 9.27234 | 1634 ft | 142 kts | 253° |
| 2026-05-05 19:10 | 48.69675 | 9.25827 | 1424 ft | 142 kts | 252° |
| 2026-05-05 19:10 | 48.69406 | 9.24403 | 1258 ft | 141 kts | 254° |
| 2026-05-05 19:11 | 48.69158 | 9.23106 | 1220 ft | 109 kts | 253° |
| 2026-05-05 19:11 | 48.69002 | 9.22257 | 1240 ft | 58 kts | 256° |
| 2026-05-05 19:11 | 48.68945 | 9.21912 | 1251 ft | 21 kts | 262° |
| 2026-05-05 19:11 | 48.68949 | 9.21703 | 1258 ft | 5 kts | 282° |
| 2026-05-05 19:12 | 48.68959 | 9.21635 | 1255 ft | 8 kts | 283° |
| 2026-05-05 19:12 | 48.68976 | 9.21535 | 1263 ft | 10 kts | 284° |
| 2026-05-05 19:12 | 48.68978 | 9.21521 | 1264 ft | 0 kts | 285° |
| 2026-05-05 19:14 | 48.68985 | 9.21478 | 1261 ft | 7 kts | 284° |
| 2026-05-05 19:15 | 48.69000 | 9.21390 | 1264 ft | 10 kts | 278° |
| 2026-05-05 19:15 | 48.68985 | 9.21270 | 1269 ft | 13 kts | 250° |
| 2026-05-05 19:15 | 48.68956 | 9.21126 | 1274 ft | 15 kts | 255° |
| 2026-05-05 19:15 | 48.68927 | 9.20962 | 1276 ft | 17 kts | 256° |
| 2026-05-05 19:16 | 48.68896 | 9.20785 | 1278 ft | 18 kts | 255° |
| 2026-05-05 19:16 | 48.68862 | 9.20599 | 1283 ft | 19 kts | 253° |
| 2026-05-05 19:16 | 48.68825 | 9.20404 | 1287 ft | 20 kts | 254° |
| 2026-05-05 19:16 | 48.68787 | 9.20203 | 1292 ft | 21 kts | 255° |
| 2026-05-05 19:17 | 48.68773 | 9.20131 | 1294 ft | 0 kts | 252° |
| 2026-05-05 19:17 | 48.68769 | 9.20114 | 1294 ft | 5 kts | 252° |
| 2026-05-05 19:18 | 48.68755 | 9.20033 | 1296 ft | 9 kts | 256° |
| 2026-05-05 19:18 | 48.68788 | 9.19945 | 1300 ft | 11 kts | 320° |
| 2026-05-05 19:18 | 48.68861 | 9.19888 | 1306 ft | 13 kts | 341° |
| 2026-05-05 19:18 | 48.68884 | 9.19790 | 1310 ft | 2 kts | 253° |
| 2026-05-05 19:19 | 48.68884 | 9.19788 | 1310 ft | 1 kts | 253° |
| 2026-05-05 19:19 | 48.68879 | 9.19765 | 1311 ft | 3 kts | 253° |
| 2026-05-05 19:19 | 48.68872 | 9.19725 | 1312 ft | 5 kts | 254° |
| 2026-05-05 19:19 | 48.68869 | 9.19711 | 1313 ft | 0 kts | 254° |
| 2026-05-05 19:20 | 48.68865 | 9.19690 | 1313 ft | 4 kts | 255° |
| 2026-05-05 19:20 | 48.68857 | 9.19644 | 1314 ft | 5 kts | 254° |
| 2026-05-05 19:20 | 48.68845 | 9.19581 | 1315 ft | 7 kts | 254° |
| 2026-05-05 19:20 | 48.68831 | 9.19505 | 1317 ft | 8 kts | 254° |
| 2026-05-05 19:21 | 48.68816 | 9.19424 | 1318 ft | 9 kts | 254° |
| 2026-05-05 19:21 | 48.68803 | 9.19361 | 1319 ft | 6 kts | 253° |
| 2026-05-05 19:21 | 48.68791 | 9.19293 | 1320 ft | 7 kts | 254° |
| 2026-05-05 19:21 | 48.68805 | 9.19236 | 1321 ft | 8 kts | 351° |
| 2026-05-05 19:22 | 48.68817 | 9.19229 | 1321 ft | 1 kts | 341° |
| 2026-05-05 19:22 | 48.68830 | 9.19224 | 1321 ft | 3 kts | 347° |
| 2026-05-05 19:22 | 48.68851 | 9.19215 | 1321 ft | 4 kts | 343° |
| 2026-05-05 19:22 | 48.68847 | 9.19217 | 1321 ft | 0 kts | 343° |
| 2026-05-05 19:23 | 48.68849 | 9.19216 | 1321 ft | 2 kts | 343° |
| 2026-05-05 19:23 | 48.68856 | 9.19213 | 1321 ft | 0 kts | 343° |